Aviation Digital Data Service (ADDS)

Output produced by METARs form (1957 UTC 01 October 2022)
found at http://www.aviationweather.gov/metar/data/
 
VTSM 011500Z 30004KT 270V340 9999 FEW020 28/22 Q1010 NOSIG
VTSM 011400Z 29006KT 260V350 9999 FEW020 28/22 Q1009 NOSIG
VTSM 011300Z 26009KT 220V350 9999 FEW020 28/22 Q1009 NOSIG
VTSM 011200Z 27006KT 240V340 9999 FEW020 28/23 Q1008 NOSIG
VTSM 011100Z 27008KT 240V350 9999 SCT020 28/23 Q1008 NOSIG
VTSM 011000Z 30010KT 240V350 9999 FEW020 29/24 Q1007 NOSIG
VTSM 010900Z 31010KT 240V010 9999 SCT020 29/24 Q1007 NOSIG
VTSM 010800Z 30007KT 270V350 9999 SCT020 31/24 Q1008 NOSIG
VTSM 010700Z 28004KT 9999 FEW020 32/23 Q1008 NOSIG
VTSM 010600Z 28005KT 220V330 9999 FEW020 33/23 Q1009 NOSIG
VTSM 010500Z 29006KT 9999 FEW020 SCT100 33/22 Q1010 NOSIG
VTSM 010400Z VRB04KT 9999 FEW020 SCT100 32/22 Q1010 NOSIG
VTSM 010300Z 28004KT 210V310 9999 FEW020 29/23 Q1011 NOSIG
VTSM 010200Z 26004KT 9999 FEW020 27/24 Q1011 NOSIG
VTSM 010100Z 28003KT 210V290 9999 FEW020 SCT100 27/23 Q1010 NOSIG
VTSM 010000Z VRB02KT 9999 FEW020 SCT100 27/24 Q1010 NOSIG
VTSM 302300Z 29003KT 220V330 9999 FEW020 26/24 Q1009 NOSIG
VTSM 302200Z 27003KT 210V290 9999 FEW020 27/24 Q1009 NOSIG
TAF VTSM 011700Z 0118/0218 28005KT 9999 FEW020 
     TEMPO 0120/0203 28015G25KT 4000 RA 
     TEMPO 0209/0215 28015G25KT 4000 TSRA FEW016CB SCT018 BKN100